sensor_id;sensor_type;location;lat;lon;timestamp;temperature;humidity
18317;DHT22;9284;52.298;21.164;2023-07-24T00:00:05;18.50;1.00
18317;DHT22;9284;52.298;21.164;2023-07-24T00:02:33;18.40;49.80
18317;DHT22;9284;52.298;21.164;2023-07-24T00:05:02;18.40;59.70
18317;DHT22;9284;52.298;21.164;2023-07-24T00:07:30;18.30;46.40
18317;DHT22;9284;52.298;21.164;2023-07-24T00:09:59;18.30;70.50
18317;DHT22;9284;52.298;21.164;2023-07-24T00:12:27;18.20;99.90
18317;DHT22;9284;52.298;21.164;2023-07-24T00:14:57;18.20;99.90
18317;DHT22;9284;52.298;21.164;2023-07-24T00:17:25;18.20;99.90
18317;DHT22;9284;52.298;21.164;2023-07-24T00:19:53;18.20;99.90
18317;DHT22;9284;52.298;21.164;2023-07-24T00:22:22;18.20;99.90
18317;DHT22;9284;52.298;21.164;2023-07-24T00:24:50;18.20;99.90
18317;DHT22;9284;52.298;21.164;2023-07-24T00:27:18;18.20;99.90
18317;DHT22;9284;52.298;21.164;2023-07-24T00:29:47;18.30;99.90
18317;DHT22;9284;52.298;21.164;2023-07-24T00:32:16;18.30;99.90
18317;DHT22;9284;52.298;21.164;2023-07-24T00:34:45;18.30;99.90
18317;DHT22;9284;52.298;21.164;2023-07-24T00:37:13;18.30;99.90
18317;DHT22;9284;52.298;21.164;2023-07-24T00:39:42;18.30;99.90
18317;DHT22;9284;52.298;21.164;2023-07-24T00:42:10;18.30;99.90
18317;DHT22;9284;52.298;21.164;2023-07-24T00:44:38;18.30;99.90
18317;DHT22;9284;52.298;21.164;2023-07-24T00:47:07;18.30;1.00
18317;DHT22;9284;52.298;21.164;2023-07-24T00:49:37;18.30;1.00
18317;DHT22;9284;52.298;21.164;2023-07-24T00:52:05;18.20;1.00
18317;DHT22;9284;52.298;21.164;2023-07-24T00:54:34;18.20;1.00
18317;DHT22;9284;52.298;21.164;2023-07-24T00:57:03;18.30;1.00
18317;DHT22;9284;52.298;21.164;2023-07-24T00:59:32;18.30;1.00
18317;DHT22;9284;52.298;21.164;2023-07-24T01:02:01;18.30;1.00
18317;DHT22;9284;52.298;21.164;2023-07-24T01:04:30;18.30;1.00
18317;DHT22;9284;52.298;21.164;2023-07-24T01:06:59;18.20;1.00
18317;DHT22;9284;52.298;21.164;2023-07-24T01:09:28;18.20;1.00
18317;DHT22;9284;52.298;21.164;2023-07-24T01:12:00;18.40;1.00
18317;DHT22;9284;52.298;21.164;2023-07-24T01:14:38;18.20;1.00
18317;DHT22;9284;52.298;21.164;2023-07-24T01:17:14;18.20;1.00
18317;DHT22;9284;52.298;21.164;2023-07-24T01:19:46;18.20;1.00
18317;DHT22;9284;52.298;21.164;2023-07-24T01:22:23;18.10;1.00
18317;DHT22;9284;52.298;21.164;2023-07-24T01:25:01;18.10;1.00
18317;DHT22;9284;52.298;21.164;2023-07-24T01:27:34;18.10;1.00
18317;DHT22;9284;52.298;21.164;2023-07-24T01:30:02;18.10;1.00
18317;DHT22;9284;52.298;21.164;2023-07-24T01:32:31;18.20;1.00
18317;DHT22;9284;52.298;21.164;2023-07-24T01:34:59;18.20;1.00
18317;DHT22;9284;52.298;21.164;2023-07-24T01:37:28;18.20;1.00
18317;DHT22;9284;52.298;21.164;2023-07-24T01:39:57;18.20;1.00
18317;DHT22;9284;52.298;21.164;2023-07-24T01:42:26;18.20;1.00
18317;DHT22;9284;52.298;21.164;2023-07-24T01:44:57;18.20;1.00
18317;DHT22;9284;52.298;21.164;2023-07-24T01:47:25;18.20;1.00
18317;DHT22;9284;52.298;21.164;2023-07-24T01:49:53;18.20;1.00
18317;DHT22;9284;52.298;21.164;2023-07-24T01:52:22;18.20;1.00
18317;DHT22;9284;52.298;21.164;2023-07-24T01:54:50;18.20;1.00
18317;DHT22;9284;52.298;21.164;2023-07-24T01:57:18;18.20;1.00
18317;DHT22;9284;52.298;21.164;2023-07-24T01:59:47;18.20;1.00
18317;DHT22;9284;52.298;21.164;2023-07-24T02:02:17;18.20;1.00
18317;DHT22;9284;52.298;21.164;2023-07-24T02:04:46;18.20;1.00
18317;DHT22;9284;52.298;21.164;2023-07-24T02:07:14;18.10;1.00
18317;DHT22;9284;52.298;21.164;2023-07-24T02:09:43;18.10;1.00
18317;DHT22;9284;52.298;21.164;2023-07-24T02:12:11;18.10;99.90
18317;DHT22;9284;52.298;21.164;2023-07-24T02:14:39;18.10;99.90
18317;DHT22;9284;52.298;21.164;2023-07-24T02:17:08;18.10;99.90
18317;DHT22;9284;52.298;21.164;2023-07-24T02:19:37;18.20;99.90
18317;DHT22;9284;52.298;21.164;2023-07-24T02:22:06;18.20;99.90
18317;DHT22;9284;52.298;21.164;2023-07-24T02:24:34;18.30;99.90
18317;DHT22;9284;52.298;21.164;2023-07-24T02:27:05;18.30;99.90
18317;DHT22;9284;52.298;21.164;2023-07-24T02:29:33;18.40;1.00
18317;DHT22;9284;52.298;21.164;2023-07-24T02:32:03;18.40;42.70
18317;DHT22;9284;52.298;21.164;2023-07-24T02:34:31;18.40;1.00
18317;DHT22;9284;52.298;21.164;2023-07-24T02:37:01;18.40;3.60
18317;DHT22;9284;52.298;21.164;2023-07-24T02:39:29;18.40;1.00
18317;DHT22;9284;52.298;21.164;2023-07-24T02:42:00;18.40;1.00
18317;DHT22;9284;52.298;21.164;2023-07-24T02:44:28;18.40;1.00
18317;DHT22;9284;52.298;21.164;2023-07-24T02:46:56;18.40;1.00
18317;DHT22;9284;52.298;21.164;2023-07-24T02:49:25;18.30;1.00
18317;DHT22;9284;52.298;21.164;2023-07-24T02:51:53;18.30;1.00
18317;DHT22;9284;52.298;21.164;2023-07-24T02:54:23;18.30;1.00
18317;DHT22;9284;52.298;21.164;2023-07-24T02:56:51;18.30;1.00
18317;DHT22;9284;52.298;21.164;2023-07-24T02:59:19;18.30;1.00
18317;DHT22;9284;52.298;21.164;2023-07-24T03:01:48;18.30;1.00
18317;DHT22;9284;52.298;21.164;2023-07-24T03:04:16;18.40;99.90
18317;DHT22;9284;52.298;21.164;2023-07-24T03:06:45;18.60;99.90
18317;DHT22;9284;52.298;21.164;2023-07-24T03:09:13;18.60;99.90
18317;DHT22;9284;52.298;21.164;2023-07-24T03:11:43;18.80;99.90
18317;DHT22;9284;52.298;21.164;2023-07-24T03:14:11;19.10;99.90
18317;DHT22;9284;52.298;21.164;2023-07-24T03:16:40;19.40;99.90
18317;DHT22;9284;52.298;21.164;2023-07-24T03:19:08;19.60;99.90
18317;DHT22;9284;52.298;21.164;2023-07-24T03:21:36;19.70;99.90
18317;DHT22;9284;52.298;21.164;2023-07-24T03:24:05;19.80;99.90
18317;DHT22;9284;52.298;21.164;2023-07-24T03:26:33;20.00;92.70
18317;DHT22;9284;52.298;21.164;2023-07-24T03:29:04;20.10;80.70
18317;DHT22;9284;52.298;21.164;2023-07-24T03:31:33;20.20;68.20
18317;DHT22;9284;52.298;21.164;2023-07-24T03:34:01;20.40;56.60
18317;DHT22;9284;52.298;21.164;2023-07-24T03:36:29;20.40;52.70
18317;DHT22;9284;52.298;21.164;2023-07-24T03:38:58;20.40;41.50
18317;DHT22;9284;52.298;21.164;2023-07-24T03:41:27;20.40;36.50
18317;DHT22;9284;52.298;21.164;2023-07-24T03:43:55;20.40;34.00
18317;DHT22;9284;52.298;21.164;2023-07-24T03:46:25;20.40;41.10
18317;DHT22;9284;52.298;21.164;2023-07-24T03:48:54;20.30;40.00
18317;DHT22;9284;52.298;21.164;2023-07-24T03:51:23;20.30;53.00
18317;DHT22;9284;52.298;21.164;2023-07-24T03:53:51;20.20;55.70
18317;DHT22;9284;52.298;21.164;2023-07-24T03:56:21;20.20;57.90
18317;DHT22;9284;52.298;21.164;2023-07-24T03:58:49;20.20;49.20
18317;DHT22;9284;52.298;21.164;2023-07-24T04:01:18;20.30;46.20
18317;DHT22;9284;52.298;21.164;2023-07-24T04:03:47;20.30;45.60
18317;DHT22;9284;52.298;21.164;2023-07-24T04:06:16;20.30;45.30
18317;DHT22;9284;52.298;21.164;2023-07-24T04:08:44;20.30;49.80
18317;DHT22;9284;52.298;21.164;2023-07-24T04:11:14;20.30;40.10
18317;DHT22;9284;52.298;21.164;2023-07-24T04:13:43;20.30;40.70
18317;DHT22;9284;52.298;21.164;2023-07-24T04:16:11;20.30;44.00
18317;DHT22;9284;52.298;21.164;2023-07-24T04:18:39;20.30;32.50
18317;DHT22;9284;52.298;21.164;2023-07-24T04:21:09;20.30;36.10
18317;DHT22;9284;52.298;21.164;2023-07-24T04:23:39;20.40;27.30
18317;DHT22;9284;52.298;21.164;2023-07-24T04:26:10;20.40;24.20
18317;DHT22;9284;52.298;21.164;2023-07-24T04:28:40;20.50;21.40
18317;DHT22;9284;52.298;21.164;2023-07-24T04:31:08;20.50;20.20
18317;DHT22;9284;52.298;21.164;2023-07-24T04:33:37;20.60;20.00
18317;DHT22;9284;52.298;21.164;2023-07-24T04:36:05;20.60;19.00
18317;DHT22;9284;52.298;21.164;2023-07-24T04:38:36;20.70;26.50
18317;DHT22;9284;52.298;21.164;2023-07-24T04:41:07;20.80;19.50
18317;DHT22;9284;52.298;21.164;2023-07-24T04:43:35;20.90;17.50
18317;DHT22;9284;52.298;21.164;2023-07-24T04:46:03;20.90;16.50
18317;DHT22;9284;52.298;21.164;2023-07-24T04:48:32;21.00;12.90
18317;DHT22;9284;52.298;21.164;2023-07-24T04:51:00;21.00;16.30
18317;DHT22;9284;52.298;21.164;2023-07-24T04:53:28;21.00;15.10
18317;DHT22;9284;52.298;21.164;2023-07-24T04:55:58;21.00;7.70
18317;DHT22;9284;52.298;21.164;2023-07-24T04:58:27;20.90;7.70
18317;DHT22;9284;52.298;21.164;2023-07-24T05:00:55;20.90;6.70
18317;DHT22;9284;52.298;21.164;2023-07-24T05:03:23;20.90;5.20
18317;DHT22;9284;52.298;21.164;2023-07-24T05:05:54;21.00;7.20
18317;DHT22;9284;52.298;21.164;2023-07-24T05:08:23;21.10;7.20
18317;DHT22;9284;52.298;21.164;2023-07-24T05:10:54;21.10;5.90
18317;DHT22;9284;52.298;21.164;2023-07-24T05:13:24;21.10;2.30
18317;DHT22;9284;52.298;21.164;2023-07-24T05:15:53;21.30;1.00
18317;DHT22;9284;52.298;21.164;2023-07-24T05:18:21;21.50;1.00
18317;DHT22;9284;52.298;21.164;2023-07-24T05:20:49;21.70;1.00
18317;DHT22;9284;52.298;21.164;2023-07-24T05:23:19;21.80;1.00
18317;DHT22;9284;52.298;21.164;2023-07-24T05:25:47;21.90;1.00
18317;DHT22;9284;52.298;21.164;2023-07-24T05:28:15;21.90;1.00
18317;DHT22;9284;52.298;21.164;2023-07-24T05:30:45;21.80;1.00
18317;DHT22;9284;52.298;21.164;2023-07-24T05:33:13;21.70;1.00
18317;DHT22;9284;52.298;21.164;2023-07-24T05:35:42;21.70;1.00
18317;DHT22;9284;52.298;21.164;2023-07-24T05:38:10;21.60;1.00
18317;DHT22;9284;52.298;21.164;2023-07-24T05:40:39;21.60;1.00
18317;DHT22;9284;52.298;21.164;2023-07-24T05:43:07;21.60;1.00
18317;DHT22;9284;52.298;21.164;2023-07-24T05:45:35;21.60;1.00
18317;DHT22;9284;52.298;21.164;2023-07-24T05:48:05;21.60;1.00
18317;DHT22;9284;52.298;21.164;2023-07-24T05:50:33;21.60;1.00
18317;DHT22;9284;52.298;21.164;2023-07-24T05:53:02;21.60;1.00
18317;DHT22;9284;52.298;21.164;2023-07-24T05:55:30;21.60;1.00
18317;DHT22;9284;52.298;21.164;2023-07-24T05:57:58;21.60;1.00
18317;DHT22;9284;52.298;21.164;2023-07-24T06:00:27;21.50;1.00
18317;DHT22;9284;52.298;21.164;2023-07-24T06:02:55;21.50;1.00
18317;DHT22;9284;52.298;21.164;2023-07-24T06:05:25;21.50;1.00
18317;DHT22;9284;52.298;21.164;2023-07-24T06:07:54;21.60;1.00
18317;DHT22;9284;52.298;21.164;2023-07-24T06:10:23;21.60;1.00
18317;DHT22;9284;52.298;21.164;2023-07-24T06:12:51;21.60;1.00
18317;DHT22;9284;52.298;21.164;2023-07-24T06:15:19;21.80;1.00
18317;DHT22;9284;52.298;21.164;2023-07-24T06:17:47;21.90;1.00
18317;DHT22;9284;52.298;21.164;2023-07-24T06:20:20;22.00;1.00
18317;DHT22;9284;52.298;21.164;2023-07-24T06:22:50;22.00;1.00
18317;DHT22;9284;52.298;21.164;2023-07-24T06:25:18;21.90;1.00
18317;DHT22;9284;52.298;21.164;2023-07-24T06:27:46;21.70;1.00
18317;DHT22;9284;52.298;21.164;2023-07-24T06:30:15;21.70;1.00
18317;DHT22;9284;52.298;21.164;2023-07-24T06:32:43;21.60;1.00
18317;DHT22;9284;52.298;21.164;2023-07-24T06:35:12;21.60;1.00
18317;DHT22;9284;52.298;21.164;2023-07-24T06:37:40;21.60;1.00
18317;DHT22;9284;52.298;21.164;2023-07-24T06:40:10;21.70;1.00
18317;DHT22;9284;52.298;21.164;2023-07-24T06:42:39;21.60;1.00
18317;DHT22;9284;52.298;21.164;2023-07-24T06:45:08;21.70;1.00
18317;DHT22;9284;52.298;21.164;2023-07-24T06:47:36;21.80;1.00
18317;DHT22;9284;52.298;21.164;2023-07-24T06:50:06;21.80;1.00
18317;DHT22;9284;52.298;21.164;2023-07-24T06:52:35;21.70;1.00
18317;DHT22;9284;52.298;21.164;2023-07-24T06:55:04;21.40;1.00
18317;DHT22;9284;52.298;21.164;2023-07-24T06:57:34;21.40;1.00
18317;DHT22;9284;52.298;21.164;2023-07-24T07:00:02;21.50;1.00
18317;DHT22;9284;52.298;21.164;2023-07-24T07:02:31;21.50;1.00
18317;DHT22;9284;52.298;21.164;2023-07-24T07:05:03;21.50;1.00
18317;DHT22;9284;52.298;21.164;2023-07-24T07:07:32;21.60;1.00
18317;DHT22;9284;52.298;21.164;2023-07-24T07:10:00;21.50;1.00
18317;DHT22;9284;52.298;21.164;2023-07-24T07:12:29;21.70;1.00
18317;DHT22;9284;52.298;21.164;2023-07-24T07:14:58;21.90;1.00
18317;DHT22;9284;52.298;21.164;2023-07-24T07:17:27;22.10;1.00
18317;DHT22;9284;52.298;21.164;2023-07-24T07:19:55;22.30;1.00
18317;DHT22;9284;52.298;21.164;2023-07-24T07:22:24;22.50;1.00
18317;DHT22;9284;52.298;21.164;2023-07-24T07:24:52;22.80;1.00
18317;DHT22;9284;52.298;21.164;2023-07-24T07:27:21;23.40;1.00
18317;DHT22;9284;52.298;21.164;2023-07-24T07:29:49;23.80;1.00
18317;DHT22;9284;52.298;21.164;2023-07-24T07:32:19;24.10;1.00
18317;DHT22;9284;52.298;21.164;2023-07-24T07:34:47;24.20;1.00
18317;DHT22;9284;52.298;21.164;2023-07-24T07:37:15;24.10;1.00
18317;DHT22;9284;52.298;21.164;2023-07-24T07:39:44;24.70;1.00
18317;DHT22;9284;52.298;21.164;2023-07-24T07:42:12;25.20;1.00
18317;DHT22;9284;52.298;21.164;2023-07-24T07:44:45;25.20;1.00
18317;DHT22;9284;52.298;21.164;2023-07-24T07:47:13;25.50;1.00
18317;DHT22;9284;52.298;21.164;2023-07-24T07:49:43;25.60;1.00
18317;DHT22;9284;52.298;21.164;2023-07-24T07:52:11;25.30;1.00
18317;DHT22;9284;52.298;21.164;2023-07-24T07:54:45;25.30;1.00
18317;DHT22;9284;52.298;21.164;2023-07-24T07:57:13;24.90;1.00
18317;DHT22;9284;52.298;21.164;2023-07-24T07:59:42;24.90;1.00
18317;DHT22;9284;52.298;21.164;2023-07-24T08:02:10;24.60;1.00
18317;DHT22;9284;52.298;21.164;2023-07-24T08:04:38;24.40;1.00
18317;DHT22;9284;52.298;21.164;2023-07-24T08:07:08;24.30;1.00
18317;DHT22;9284;52.298;21.164;2023-07-24T08:09:36;24.40;1.00
18317;DHT22;9284;52.298;21.164;2023-07-24T08:12:06;24.90;1.00
18317;DHT22;9284;52.298;21.164;2023-07-24T08:14:35;25.40;1.00
18317;DHT22;9284;52.298;21.164;2023-07-24T08:17:04;25.60;1.00
18317;DHT22;9284;52.298;21.164;2023-07-24T08:19:32;25.90;1.00
18317;DHT22;9284;52.298;21.164;2023-07-24T08:22:01;26.10;1.00
18317;DHT22;9284;52.298;21.164;2023-07-24T08:24:33;26.00;1.00
18317;DHT22;9284;52.298;21.164;2023-07-24T08:27:02;25.50;1.00
18317;DHT22;9284;52.298;21.164;2023-07-24T08:29:31;25.20;1.00
18317;DHT22;9284;52.298;21.164;2023-07-24T08:32:00;25.00;1.00
18317;DHT22;9284;52.298;21.164;2023-07-24T08:34:29;24.80;1.00
18317;DHT22;9284;52.298;21.164;2023-07-24T08:36:57;24.80;1.00
18317;DHT22;9284;52.298;21.164;2023-07-24T08:39:26;24.90;1.00
18317;DHT22;9284;52.298;21.164;2023-07-24T08:41:56;24.80;1.00
18317;DHT22;9284;52.298;21.164;2023-07-24T08:44:25;24.80;1.00
18317;DHT22;9284;52.298;21.164;2023-07-24T08:46:58;25.00;1.00
18317;DHT22;9284;52.298;21.164;2023-07-24T08:49:29;25.20;1.00
18317;DHT22;9284;52.298;21.164;2023-07-24T08:51:58;25.10;1.00
18317;DHT22;9284;52.298;21.164;2023-07-24T08:54:29;25.30;1.00
18317;DHT22;9284;52.298;21.164;2023-07-24T08:57:00;25.60;1.00
18317;DHT22;9284;52.298;21.164;2023-07-24T08:59:29;25.90;1.00
18317;DHT22;9284;52.298;21.164;2023-07-24T09:01:57;26.20;1.00
18317;DHT22;9284;52.298;21.164;2023-07-24T09:04:26;26.40;1.00
18317;DHT22;9284;52.298;21.164;2023-07-24T09:06:56;26.50;1.00
18317;DHT22;9284;52.298;21.164;2023-07-24T09:09:29;26.70;1.00
18317;DHT22;9284;52.298;21.164;2023-07-24T09:11:59;26.80;1.00
18317;DHT22;9284;52.298;21.164;2023-07-24T09:14:29;26.70;1.00
18317;DHT22;9284;52.298;21.164;2023-07-24T09:17:03;26.70;1.00
18317;DHT22;9284;52.298;21.164;2023-07-24T09:19:31;26.50;1.00
18317;DHT22;9284;52.298;21.164;2023-07-24T09:22:10;26.50;1.00
18317;DHT22;9284;52.298;21.164;2023-07-24T09:24:49;26.60;1.00
18317;DHT22;9284;52.298;21.164;2023-07-24T09:27:20;26.70;1.00
18317;DHT22;9284;52.298;21.164;2023-07-24T09:29:48;27.10;1.00
18317;DHT22;9284;52.298;21.164;2023-07-24T09:32:21;27.60;1.00
18317;DHT22;9284;52.298;21.164;2023-07-24T09:34:50;27.40;1.00
18317;DHT22;9284;52.298;21.164;2023-07-24T09:37:25;27.70;1.00
18317;DHT22;9284;52.298;21.164;2023-07-24T09:39:54;27.70;1.00
18317;DHT22;9284;52.298;21.164;2023-07-24T09:42:31;29.10;1.00
18317;DHT22;9284;52.298;21.164;2023-07-24T09:45:04;30.10;1.00
18317;DHT22;9284;52.298;21.164;2023-07-24T09:47:35;29.60;1.00
18317;DHT22;9284;52.298;21.164;2023-07-24T09:50:22;29.50;1.00
18317;DHT22;9284;52.298;21.164;2023-07-24T09:52:51;29.10;1.00
18317;DHT22;9284;52.298;21.164;2023-07-24T09:55:25;28.70;1.00
18317;DHT22;9284;52.298;21.164;2023-07-24T09:57:58;28.70;1.00
18317;DHT22;9284;52.298;21.164;2023-07-24T10:00:29;28.70;1.00
18317;DHT22;9284;52.298;21.164;2023-07-24T10:02:59;28.50;1.00
18317;DHT22;9284;52.298;21.164;2023-07-24T10:05:28;28.80;1.00
18317;DHT22;9284;52.298;21.164;2023-07-24T10:07:58;28.40;1.00
18317;DHT22;9284;52.298;21.164;2023-07-24T10:10:27;28.50;1.00
18317;DHT22;9284;52.298;21.164;2023-07-24T10:12:58;28.70;1.00
18317;DHT22;9284;52.298;21.164;2023-07-24T10:15:27;29.00;1.00
18317;DHT22;9284;52.298;21.164;2023-07-24T10:18:02;29.50;1.00
18317;DHT22;9284;52.298;21.164;2023-07-24T10:20:34;29.80;1.00
18317;DHT22;9284;52.298;21.164;2023-07-24T10:23:03;29.70;1.00
18317;DHT22;9284;52.298;21.164;2023-07-24T10:25:36;29.50;1.00
18317;DHT22;9284;52.298;21.164;2023-07-24T10:28:07;28.90;1.00
18317;DHT22;9284;52.298;21.164;2023-07-24T10:30:38;28.40;1.00
18317;DHT22;9284;52.298;21.164;2023-07-24T10:33:08;28.30;1.00
18317;DHT22;9284;52.298;21.164;2023-07-24T10:35:42;27.80;1.00
18317;DHT22;9284;52.298;21.164;2023-07-24T10:38:14;27.90;1.00
18317;DHT22;9284;52.298;21.164;2023-07-24T10:40:44;27.80;1.00
18317;DHT22;9284;52.298;21.164;2023-07-24T10:43:19;27.70;1.00
18317;DHT22;9284;52.298;21.164;2023-07-24T10:45:49;27.60;1.00
18317;DHT22;9284;52.298;21.164;2023-07-24T10:48:19;27.70;1.00
18317;DHT22;9284;52.298;21.164;2023-07-24T10:50:49;28.10;1.00
18317;DHT22;9284;52.298;21.164;2023-07-24T10:53:21;28.40;1.00
18317;DHT22;9284;52.298;21.164;2023-07-24T10:55:51;28.50;1.00
18317;DHT22;9284;52.298;21.164;2023-07-24T10:58:24;28.20;1.00
18317;DHT22;9284;52.298;21.164;2023-07-24T11:00:53;28.00;1.00
18317;DHT22;9284;52.298;21.164;2023-07-24T11:03:24;28.10;1.00
18317;DHT22;9284;52.298;21.164;2023-07-24T11:05:53;27.70;1.00
18317;DHT22;9284;52.298;21.164;2023-07-24T11:08:22;27.60;1.00
18317;DHT22;9284;52.298;21.164;2023-07-24T11:10:51;27.70;1.00
18317;DHT22;9284;52.298;21.164;2023-07-24T11:13:22;27.50;1.00
18317;DHT22;9284;52.298;21.164;2023-07-24T11:15:52;27.70;1.00
18317;DHT22;9284;52.298;21.164;2023-07-24T11:18:22;28.10;1.00
18317;DHT22;9284;52.298;21.164;2023-07-24T11:21:12;28.50;1.00
18317;DHT22;9284;52.298;21.164;2023-07-24T11:23:45;29.20;1.00
18317;DHT22;9284;52.298;21.164;2023-07-24T11:26:14;29.60;1.00
18317;DHT22;9284;52.298;21.164;2023-07-24T11:28:44;29.80;1.00
18317;DHT22;9284;52.298;21.164;2023-07-24T11:31:12;30.10;1.00
18317;DHT22;9284;52.298;21.164;2023-07-24T11:33:43;30.30;1.00
18317;DHT22;9284;52.298;21.164;2023-07-24T11:36:12;30.30;1.00
18317;DHT22;9284;52.298;21.164;2023-07-24T11:38:41;30.10;1.00
18317;DHT22;9284;52.298;21.164;2023-07-24T11:41:09;29.70;1.00
18317;DHT22;9284;52.298;21.164;2023-07-24T11:43:47;29.10;1.00
18317;DHT22;9284;52.298;21.164;2023-07-24T11:46:23;28.70;1.00
18317;DHT22;9284;52.298;21.164;2023-07-24T11:48:52;28.50;1.00
18317;DHT22;9284;52.298;21.164;2023-07-24T11:51:26;28.50;1.00
18317;DHT22;9284;52.298;21.164;2023-07-24T11:54:06;28.40;1.00
18317;DHT22;9284;52.298;21.164;2023-07-24T11:56:35;28.60;1.00
18317;DHT22;9284;52.298;21.164;2023-07-24T11:59:12;29.10;1.00
18317;DHT22;9284;52.298;21.164;2023-07-24T12:01:41;29.50;1.00
18317;DHT22;9284;52.298;21.164;2023-07-24T12:04:09;29.60;1.00
18317;DHT22;9284;52.298;21.164;2023-07-24T12:06:38;29.00;1.00
18317;DHT22;9284;52.298;21.164;2023-07-24T12:09:07;29.10;1.00
18317;DHT22;9284;52.298;21.164;2023-07-24T12:11:39;29.30;1.00
18317;DHT22;9284;52.298;21.164;2023-07-24T12:14:13;29.30;1.00
18317;DHT22;9284;52.298;21.164;2023-07-24T12:16:42;29.60;1.00
18317;DHT22;9284;52.298;21.164;2023-07-24T12:19:10;29.60;1.00
18317;DHT22;9284;52.298;21.164;2023-07-24T12:21:39;29.70;1.00
18317;DHT22;9284;52.298;21.164;2023-07-24T12:24:07;29.80;1.00
18317;DHT22;9284;52.298;21.164;2023-07-24T12:26:36;29.80;1.00
18317;DHT22;9284;52.298;21.164;2023-07-24T12:29:04;30.00;1.00
18317;DHT22;9284;52.298;21.164;2023-07-24T12:31:33;29.80;1.00
18317;DHT22;9284;52.298;21.164;2023-07-24T12:34:03;29.60;1.00
18317;DHT22;9284;52.298;21.164;2023-07-24T12:36:31;29.60;1.00
18317;DHT22;9284;52.298;21.164;2023-07-24T12:38:59;29.60;1.00
18317;DHT22;9284;52.298;21.164;2023-07-24T12:41:28;29.60;1.00
18317;DHT22;9284;52.298;21.164;2023-07-24T12:43:57;29.60;1.00
18317;DHT22;9284;52.298;21.164;2023-07-24T12:46:27;29.50;1.00
18317;DHT22;9284;52.298;21.164;2023-07-24T12:48:56;29.50;1.00
18317;DHT22;9284;52.298;21.164;2023-07-24T12:51:25;29.40;1.00
18317;DHT22;9284;52.298;21.164;2023-07-24T12:53:53;29.50;1.00
18317;DHT22;9284;52.298;21.164;2023-07-24T12:56:33;29.20;1.00
18317;DHT22;9284;52.298;21.164;2023-07-24T12:59:01;29.40;1.00
18317;DHT22;9284;52.298;21.164;2023-07-24T13:01:30;29.50;1.00
18317;DHT22;9284;52.298;21.164;2023-07-24T13:04:00;29.30;1.00
18317;DHT22;9284;52.298;21.164;2023-07-24T13:06:28;29.10;1.00
18317;DHT22;9284;52.298;21.164;2023-07-24T13:08:57;28.80;1.00
18317;DHT22;9284;52.298;21.164;2023-07-24T13:11:26;28.80;1.00
18317;DHT22;9284;52.298;21.164;2023-07-24T13:13:56;28.90;1.00
18317;DHT22;9284;52.298;21.164;2023-07-24T13:16:24;29.00;1.00
18317;DHT22;9284;52.298;21.164;2023-07-24T13:18:53;29.10;1.00
18317;DHT22;9284;52.298;21.164;2023-07-24T13:21:22;29.10;1.00
18317;DHT22;9284;52.298;21.164;2023-07-24T13:23:51;29.10;1.00
18317;DHT22;9284;52.298;21.164;2023-07-24T13:26:19;29.10;1.00
18317;DHT22;9284;52.298;21.164;2023-07-24T13:28:47;29.30;1.00
18317;DHT22;9284;52.298;21.164;2023-07-24T13:31:17;29.60;1.00
18317;DHT22;9284;52.298;21.164;2023-07-24T13:33:46;29.80;1.00
18317;DHT22;9284;52.298;21.164;2023-07-24T13:36:14;29.60;1.00
18317;DHT22;9284;52.298;21.164;2023-07-24T13:38:44;29.70;1.00
18317;DHT22;9284;52.298;21.164;2023-07-24T13:41:12;29.70;1.00
18317;DHT22;9284;52.298;21.164;2023-07-24T13:43:41;29.50;1.00
18317;DHT22;9284;52.298;21.164;2023-07-24T13:46:09;29.60;1.00
18317;DHT22;9284;52.298;21.164;2023-07-24T13:48:37;29.60;1.00
18317;DHT22;9284;52.298;21.164;2023-07-24T13:51:06;29.50;1.00
18317;DHT22;9284;52.298;21.164;2023-07-24T13:53:34;29.40;1.00
18317;DHT22;9284;52.298;21.164;2023-07-24T13:56:05;29.20;1.00
18317;DHT22;9284;52.298;21.164;2023-07-24T13:58:33;29.20;1.00
18317;DHT22;9284;52.298;21.164;2023-07-24T14:01:01;29.50;1.00
18317;DHT22;9284;52.298;21.164;2023-07-24T14:03:30;29.70;1.00
18317;DHT22;9284;52.298;21.164;2023-07-24T14:05:58;29.80;1.00
18317;DHT22;9284;52.298;21.164;2023-07-24T14:08:27;30.00;1.00
18317;DHT22;9284;52.298;21.164;2023-07-24T14:10:55;30.10;1.00
18317;DHT22;9284;52.298;21.164;2023-07-24T14:13:25;29.70;1.00
18317;DHT22;9284;52.298;21.164;2023-07-24T14:15:53;29.60;1.00
18317;DHT22;9284;52.298;21.164;2023-07-24T14:18:22;29.60;1.00
18317;DHT22;9284;52.298;21.164;2023-07-24T14:20:50;29.40;1.00
18317;DHT22;9284;52.298;21.164;2023-07-24T14:23:21;29.40;1.00
18317;DHT22;9284;52.298;21.164;2023-07-24T14:25:50;29.40;1.00
18317;DHT22;9284;52.298;21.164;2023-07-24T14:28:21;29.30;1.00
18317;DHT22;9284;52.298;21.164;2023-07-24T14:30:51;29.20;1.00
18317;DHT22;9284;52.298;21.164;2023-07-24T14:33:19;29.20;1.00
18317;DHT22;9284;52.298;21.164;2023-07-24T14:35:49;29.20;1.00
18317;DHT22;9284;52.298;21.164;2023-07-24T14:38:17;29.20;1.00
18317;DHT22;9284;52.298;21.164;2023-07-24T14:40:46;29.20;1.00
18317;DHT22;9284;52.298;21.164;2023-07-24T14:43:14;29.30;1.00
18317;DHT22;9284;52.298;21.164;2023-07-24T14:45:43;29.50;1.00
18317;DHT22;9284;52.298;21.164;2023-07-24T14:48:13;29.60;1.00
18317;DHT22;9284;52.298;21.164;2023-07-24T14:50:43;29.70;1.00
18317;DHT22;9284;52.298;21.164;2023-07-24T14:53:11;29.60;1.00
18317;DHT22;9284;52.298;21.164;2023-07-24T14:55:40;29.60;1.00
18317;DHT22;9284;52.298;21.164;2023-07-24T14:58:08;29.60;1.00
18317;DHT22;9284;52.298;21.164;2023-07-24T15:00:37;29.40;1.00
18317;DHT22;9284;52.298;21.164;2023-07-24T15:03:05;29.50;1.00
18317;DHT22;9284;52.298;21.164;2023-07-24T15:05:35;29.40;1.00
18317;DHT22;9284;52.298;21.164;2023-07-24T15:08:04;29.30;1.00
18317;DHT22;9284;52.298;21.164;2023-07-24T15:10:32;29.40;1.00
18317;DHT22;9284;52.298;21.164;2023-07-24T15:13:00;29.40;1.00
18317;DHT22;9284;52.298;21.164;2023-07-24T15:15:29;29.50;1.00
18317;DHT22;9284;52.298;21.164;2023-07-24T15:17:59;29.50;1.00
18317;DHT22;9284;52.298;21.164;2023-07-24T15:20:27;29.50;1.00
18317;DHT22;9284;52.298;21.164;2023-07-24T15:22:57;29.50;1.00
18317;DHT22;9284;52.298;21.164;2023-07-24T15:25:26;29.50;1.00
18317;DHT22;9284;52.298;21.164;2023-07-24T15:27:54;29.70;1.00
18317;DHT22;9284;52.298;21.164;2023-07-24T15:30:22;29.60;1.00
18317;DHT22;9284;52.298;21.164;2023-07-24T15:32:51;29.60;1.00
18317;DHT22;9284;52.298;21.164;2023-07-24T15:35:20;29.80;1.00
18317;DHT22;9284;52.298;21.164;2023-07-24T15:37:48;30.00;1.00
18317;DHT22;9284;52.298;21.164;2023-07-24T15:40:18;30.10;1.00
18317;DHT22;9284;52.298;21.164;2023-07-24T15:42:46;30.00;1.00
18317;DHT22;9284;52.298;21.164;2023-07-24T15:45:15;30.10;1.00
18317;DHT22;9284;52.298;21.164;2023-07-24T15:47:43;30.20;1.00
18317;DHT22;9284;52.298;21.164;2023-07-24T15:50:12;30.20;1.00
18317;DHT22;9284;52.298;21.164;2023-07-24T15:52:42;30.10;1.00
18317;DHT22;9284;52.298;21.164;2023-07-24T15:55:10;29.90;1.00